sensor_id;sensor_type;location;lat;lon;timestamp;P1;durP1;ratioP1;P2;durP2;ratioP2
21270;SDS011;10795;50.796;3.860;2022-08-01T00:01:01;5.78;;;2.60;;
21270;SDS011;10795;50.796;3.860;2022-08-01T00:03:27;5.32;;;2.67;;
21270;SDS011;10795;50.796;3.860;2022-08-01T00:05:52;7.18;;;3.00;;
21270;SDS011;10795;50.796;3.860;2022-08-01T00:08:18;7.45;;;2.97;;
21270;SDS011;10795;50.796;3.860;2022-08-01T00:10:44;4.97;;;2.90;;
21270;SDS011;10795;50.796;3.860;2022-08-01T00:13:09;6.50;;;3.50;;
21270;SDS011;10795;50.796;3.860;2022-08-01T00:15:35;6.13;;;3.10;;
21270;SDS011;10795;50.796;3.860;2022-08-01T00:18:01;6.15;;;3.10;;
21270;SDS011;10795;50.796;3.860;2022-08-01T00:20:27;6.10;;;3.20;;
21270;SDS011;10795;50.796;3.860;2022-08-01T00:22:53;7.00;;;3.45;;
21270;SDS011;10795;50.796;3.860;2022-08-01T00:25:18;4.53;;;3.00;;
21270;SDS011;10795;50.796;3.860;2022-08-01T00:27:44;6.43;;;3.10;;
21270;SDS011;10795;50.796;3.860;2022-08-01T00:30:10;7.28;;;3.17;;
21270;SDS011;10795;50.796;3.860;2022-08-01T00:32:36;5.05;;;3.25;;
21270;SDS011;10795;50.796;3.860;2022-08-01T00:35:01;7.13;;;3.15;;
21270;SDS011;10795;50.796;3.860;2022-08-01T00:37:27;9.07;;;3.80;;
21270;SDS011;10795;50.796;3.860;2022-08-01T00:39:53;8.60;;;4.03;;
21270;SDS011;10795;50.796;3.860;2022-08-01T00:42:19;8.07;;;4.03;;
21270;SDS011;10795;50.796;3.860;2022-08-01T00:44:45;8.90;;;4.78;;
21270;SDS011;10795;50.796;3.860;2022-08-01T00:47:11;8.43;;;4.07;;
21270;SDS011;10795;50.796;3.860;2022-08-01T00:49:36;10.40;;;5.18;;
21270;SDS011;10795;50.796;3.860;2022-08-01T00:52:03;8.68;;;4.40;;
21270;SDS011;10795;50.796;3.860;2022-08-01T00:54:30;8.27;;;4.32;;
21270;SDS011;10795;50.796;3.860;2022-08-01T00:56:56;11.02;;;5.25;;
21270;SDS011;10795;50.796;3.860;2022-08-01T00:59:23;7.80;;;4.88;;
21270;SDS011;10795;50.796;3.860;2022-08-01T01:01:49;10.00;;;5.10;;
21270;SDS011;10795;50.796;3.860;2022-08-01T01:04:15;9.98;;;5.18;;
21270;SDS011;10795;50.796;3.860;2022-08-01T01:06:44;10.07;;;5.65;;
21270;SDS011;10795;50.796;3.860;2022-08-01T01:12:17;11.32;;;5.63;;
21270;SDS011;10795;50.796;3.860;2022-08-01T01:20:28;15.00;;;7.10;;
21270;SDS011;10795;50.796;3.860;2022-08-01T01:25:40;15.27;;;7.93;;
21270;SDS011;10795;50.796;3.860;2022-08-01T01:28:35;17.23;;;8.45;;
21270;SDS011;10795;50.796;3.860;2022-08-01T01:31:19;16.98;;;9.75;;
21270;SDS011;10795;50.796;3.860;2022-08-01T01:33:47;17.23;;;9.80;;
21270;SDS011;10795;50.796;3.860;2022-08-01T01:36:14;19.63;;;9.43;;
21270;SDS011;10795;50.796;3.860;2022-08-01T01:38:44;16.85;;;9.57;;
21270;SDS011;10795;50.796;3.860;2022-08-01T01:41:12;19.48;;;9.77;;
21270;SDS011;10795;50.796;3.860;2022-08-01T01:43:40;17.42;;;9.98;;
21270;SDS011;10795;50.796;3.860;2022-08-01T01:46:07;19.95;;;10.57;;
21270;SDS011;10795;50.796;3.860;2022-08-01T01:48:35;17.55;;;9.48;;
21270;SDS011;10795;50.796;3.860;2022-08-01T01:51:03;17.40;;;10.05;;
21270;SDS011;10795;50.796;3.860;2022-08-01T01:53:30;17.25;;;10.05;;
21270;SDS011;10795;50.796;3.860;2022-08-01T01:55:58;16.50;;;9.77;;
21270;SDS011;10795;50.796;3.860;2022-08-01T01:58:27;18.70;;;10.20;;
21270;SDS011;10795;50.796;3.860;2022-08-01T02:00:55;17.55;;;9.98;;
21270;SDS011;10795;50.796;3.860;2022-08-01T02:03:23;17.17;;;9.40;;
21270;SDS011;10795;50.796;3.860;2022-08-01T02:05:51;17.05;;;9.10;;
21270;SDS011;10795;50.796;3.860;2022-08-01T02:08:19;16.27;;;8.98;;
21270;SDS011;10795;50.796;3.860;2022-08-01T02:10:46;16.42;;;9.32;;
21270;SDS011;10795;50.796;3.860;2022-08-01T02:13:31;17.08;;;8.88;;
21270;SDS011;10795;50.796;3.860;2022-08-01T02:15:59;16.65;;;9.93;;
21270;SDS011;10795;50.796;3.860;2022-08-01T02:18:27;16.85;;;9.15;;
21270;SDS011;10795;50.796;3.860;2022-08-01T02:20:53;14.95;;;8.95;;
21270;SDS011;10795;50.796;3.860;2022-08-01T02:23:21;18.20;;;9.30;;
21270;SDS011;10795;50.796;3.860;2022-08-01T02:25:49;20.27;;;10.23;;
21270;SDS011;10795;50.796;3.860;2022-08-01T02:28:25;20.90;;;9.50;;
21270;SDS011;10795;50.796;3.860;2022-08-01T02:30:56;17.02;;;9.45;;
21270;SDS011;10795;50.796;3.860;2022-08-01T02:33:29;14.40;;;8.93;;
21270;SDS011;10795;50.796;3.860;2022-08-01T02:36:04;18.55;;;9.57;;
21270;SDS011;10795;50.796;3.860;2022-08-01T02:38:33;19.50;;;10.10;;
21270;SDS011;10795;50.796;3.860;2022-08-01T02:41:04;16.73;;;9.25;;
21270;SDS011;10795;50.796;3.860;2022-08-01T02:43:34;14.80;;;9.52;;
21270;SDS011;10795;50.796;3.860;2022-08-01T02:46:04;13.57;;;9.43;;
21270;SDS011;10795;50.796;3.860;2022-08-01T02:48:33;19.02;;;10.07;;
21270;SDS011;10795;50.796;3.860;2022-08-01T02:51:01;17.33;;;9.95;;
21270;SDS011;10795;50.796;3.860;2022-08-01T02:53:30;18.40;;;9.70;;
21270;SDS011;10795;50.796;3.860;2022-08-01T02:56:02;24.48;;;11.82;;
21270;SDS011;10795;50.796;3.860;2022-08-01T02:58:30;21.98;;;11.25;;
21270;SDS011;10795;50.796;3.860;2022-08-01T03:00:58;23.63;;;12.30;;
21270;SDS011;10795;50.796;3.860;2022-08-01T03:03:24;27.58;;;12.23;;
21270;SDS011;10795;50.796;3.860;2022-08-01T03:05:51;27.95;;;12.77;;
21270;SDS011;10795;50.796;3.860;2022-08-01T03:08:17;24.17;;;11.95;;
21270;SDS011;10795;50.796;3.860;2022-08-01T03:10:45;29.90;;;12.85;;
21270;SDS011;10795;50.796;3.860;2022-08-01T03:13:12;30.33;;;12.68;;
21270;SDS011;10795;50.796;3.860;2022-08-01T03:15:40;24.98;;;12.65;;
21270;SDS011;10795;50.796;3.860;2022-08-01T03:18:09;28.25;;;13.40;;
21270;SDS011;10795;50.796;3.860;2022-08-01T03:20:36;27.88;;;14.27;;
21270;SDS011;10795;50.796;3.860;2022-08-01T03:23:06;38.55;;;15.00;;
21270;SDS011;10795;50.796;3.860;2022-08-01T03:25:34;18.58;;;9.55;;
21270;SDS011;10795;50.796;3.860;2022-08-01T03:28:03;31.48;;;14.70;;
21270;SDS011;10795;50.796;3.860;2022-08-01T03:30:31;29.13;;;14.05;;
21270;SDS011;10795;50.796;3.860;2022-08-01T03:32:58;30.83;;;15.63;;
21270;SDS011;10795;50.796;3.860;2022-08-01T03:35:29;37.10;;;15.40;;
21270;SDS011;10795;50.796;3.860;2022-08-01T03:37:58;28.73;;;15.10;;
21270;SDS011;10795;50.796;3.860;2022-08-01T03:40:43;38.42;;;15.70;;
21270;SDS011;10795;50.796;3.860;2022-08-01T03:43:22;29.42;;;15.32;;
21270;SDS011;10795;50.796;3.860;2022-08-01T03:46:12;33.83;;;16.25;;
21270;SDS011;10795;50.796;3.860;2022-08-01T03:48:47;28.77;;;15.00;;
21270;SDS011;10795;50.796;3.860;2022-08-01T03:51:15;30.27;;;15.80;;
21270;SDS011;10795;50.796;3.860;2022-08-01T03:53:43;33.28;;;16.42;;
21270;SDS011;10795;50.796;3.860;2022-08-01T03:56:10;26.75;;;15.95;;
21270;SDS011;10795;50.796;3.860;2022-08-01T03:58:41;32.85;;;15.95;;
21270;SDS011;10795;50.796;3.860;2022-08-01T04:01:08;32.75;;;15.45;;
21270;SDS011;10795;50.796;3.860;2022-08-01T04:03:35;31.92;;;16.25;;
21270;SDS011;10795;50.796;3.860;2022-08-01T04:06:05;24.02;;;13.60;;
21270;SDS011;10795;50.796;3.860;2022-08-01T04:08:34;26.65;;;15.23;;
21270;SDS011;10795;50.796;3.860;2022-08-01T04:11:04;24.77;;;15.02;;
21270;SDS011;10795;50.796;3.860;2022-08-01T04:13:30;28.40;;;15.38;;
21270;SDS011;10795;50.796;3.860;2022-08-01T04:15:56;31.75;;;15.65;;
21270;SDS011;10795;50.796;3.860;2022-08-01T04:18:22;31.98;;;15.93;;
21270;SDS011;10795;50.796;3.860;2022-08-01T04:20:48;29.10;;;15.93;;
21270;SDS011;10795;50.796;3.860;2022-08-01T04:23:21;31.65;;;15.13;;
21270;SDS011;10795;50.796;3.860;2022-08-01T04:25:50;26.70;;;14.95;;
21270;SDS011;10795;50.796;3.860;2022-08-01T04:28:16;29.45;;;14.70;;
21270;SDS011;10795;50.796;3.860;2022-08-01T04:30:46;28.50;;;14.75;;
21270;SDS011;10795;50.796;3.860;2022-08-01T04:33:14;25.10;;;14.98;;
21270;SDS011;10795;50.796;3.860;2022-08-01T04:35:43;24.13;;;14.60;;
21270;SDS011;10795;50.796;3.860;2022-08-01T04:38:11;29.55;;;15.57;;
21270;SDS011;10795;50.796;3.860;2022-08-01T04:40:40;29.05;;;14.98;;
21270;SDS011;10795;50.796;3.860;2022-08-01T04:43:07;21.45;;;13.63;;
21270;SDS011;10795;50.796;3.860;2022-08-01T04:45:33;20.73;;;14.02;;
21270;SDS011;10795;50.796;3.860;2022-08-01T04:48:00;25.50;;;14.85;;
21270;SDS011;10795;50.796;3.860;2022-08-01T04:50:26;23.15;;;13.25;;
21270;SDS011;10795;50.796;3.860;2022-08-01T04:52:52;24.63;;;13.70;;
21270;SDS011;10795;50.796;3.860;2022-08-01T04:55:18;26.55;;;13.82;;
21270;SDS011;10795;50.796;3.860;2022-08-01T04:57:45;21.88;;;12.77;;
21270;SDS011;10795;50.796;3.860;2022-08-01T05:00:12;23.45;;;12.73;;
21270;SDS011;10795;50.796;3.860;2022-08-01T05:02:38;20.70;;;11.73;;
21270;SDS011;10795;50.796;3.860;2022-08-01T05:05:04;21.75;;;11.90;;
21270;SDS011;10795;50.796;3.860;2022-08-01T05:07:35;18.55;;;11.13;;
21270;SDS011;10795;50.796;3.860;2022-08-01T05:10:02;21.27;;;11.73;;
21270;SDS011;10795;50.796;3.860;2022-08-01T05:12:29;23.58;;;11.15;;
21270;SDS011;10795;50.796;3.860;2022-08-01T05:14:55;19.10;;;10.75;;
21270;SDS011;10795;50.796;3.860;2022-08-01T05:17:20;20.73;;;10.32;;
21270;SDS011;10795;50.796;3.860;2022-08-01T05:19:46;19.35;;;10.88;;
21270;SDS011;10795;50.796;3.860;2022-08-01T05:22:12;19.58;;;10.80;;
21270;SDS011;10795;50.796;3.860;2022-08-01T05:24:38;20.08;;;10.18;;
21270;SDS011;10795;50.796;3.860;2022-08-01T05:27:05;14.25;;;8.07;;
21270;SDS011;10795;50.796;3.860;2022-08-01T05:29:32;18.83;;;9.25;;
21270;SDS011;10795;50.796;3.860;2022-08-01T05:31:59;17.77;;;10.52;;
21270;SDS011;10795;50.796;3.860;2022-08-01T05:34:25;17.65;;;9.80;;
21270;SDS011;10795;50.796;3.860;2022-08-01T05:36:51;17.70;;;9.82;;
21270;SDS011;10795;50.796;3.860;2022-08-01T05:39:17;14.48;;;8.48;;
21270;SDS011;10795;50.796;3.860;2022-08-01T05:41:42;14.88;;;9.35;;
21270;SDS011;10795;50.796;3.860;2022-08-01T05:44:08;14.70;;;9.15;;
21270;SDS011;10795;50.796;3.860;2022-08-01T05:46:35;12.75;;;7.65;;
21270;SDS011;10795;50.796;3.860;2022-08-01T05:49:01;12.55;;;8.63;;
21270;SDS011;10795;50.796;3.860;2022-08-01T05:51:28;10.95;;;8.13;;
21270;SDS011;10795;50.796;3.860;2022-08-01T05:53:54;15.57;;;8.90;;
21270;SDS011;10795;50.796;3.860;2022-08-01T05:56:22;13.73;;;8.63;;
21270;SDS011;10795;50.796;3.860;2022-08-01T05:58:48;13.07;;;7.95;;
21270;SDS011;10795;50.796;3.860;2022-08-01T06:01:15;9.93;;;6.38;;
21270;SDS011;10795;50.796;3.860;2022-08-01T06:03:42;16.67;;;7.55;;
21270;SDS011;10795;50.796;3.860;2022-08-01T06:06:08;13.73;;;7.43;;
21270;SDS011;10795;50.796;3.860;2022-08-01T06:08:34;14.32;;;7.68;;
21270;SDS011;10795;50.796;3.860;2022-08-01T06:10:59;12.98;;;8.15;;
21270;SDS011;10795;50.796;3.860;2022-08-01T06:13:25;15.30;;;7.95;;
21270;SDS011;10795;50.796;3.860;2022-08-01T06:15:51;15.98;;;7.85;;
21270;SDS011;10795;50.796;3.860;2022-08-01T06:18:17;11.18;;;7.95;;
21270;SDS011;10795;50.796;3.860;2022-08-01T06:20:43;13.38;;;7.22;;
21270;SDS011;10795;50.796;3.860;2022-08-01T06:23:09;10.45;;;7.00;;
21270;SDS011;10795;50.796;3.860;2022-08-01T06:25:35;10.40;;;6.78;;
21270;SDS011;10795;50.796;3.860;2022-08-01T06:28:00;9.48;;;7.10;;
21270;SDS011;10795;50.796;3.860;2022-08-01T06:30:26;10.45;;;7.00;;
21270;SDS011;10795;50.796;3.860;2022-08-01T06:32:52;15.40;;;7.70;;
21270;SDS011;10795;50.796;3.860;2022-08-01T06:35:20;11.65;;;7.97;;
21270;SDS011;10795;50.796;3.860;2022-08-01T06:37:46;11.52;;;7.00;;
21270;SDS011;10795;50.796;3.860;2022-08-01T06:40:12;10.05;;;6.57;;
21270;SDS011;10795;50.796;3.860;2022-08-01T06:42:38;10.10;;;7.50;;
21270;SDS011;10795;50.796;3.860;2022-08-01T06:45:05;15.43;;;7.65;;
21270;SDS011;10795;50.796;3.860;2022-08-01T06:47:32;10.35;;;8.73;;
21270;SDS011;10795;50.796;3.860;2022-08-01T06:49:58;10.65;;;8.45;;
21270;SDS011;10795;50.796;3.860;2022-08-01T06:52:24;9.73;;;6.70;;
21270;SDS011;10795;50.796;3.860;2022-08-01T06:54:50;11.57;;;7.38;;
21270;SDS011;10795;50.796;3.860;2022-08-01T06:57:16;9.20;;;6.80;;
21270;SDS011;10795;50.796;3.860;2022-08-01T06:59:42;10.18;;;7.90;;
21270;SDS011;10795;50.796;3.860;2022-08-01T07:02:08;13.60;;;8.45;;
21270;SDS011;10795;50.796;3.860;2022-08-01T07:04:34;11.70;;;7.88;;
21270;SDS011;10795;50.796;3.860;2022-08-01T07:07:00;11.02;;;8.02;;
21270;SDS011;10795;50.796;3.860;2022-08-01T07:09:26;4.93;;;3.80;;
21270;SDS011;10795;50.796;3.860;2022-08-01T07:11:52;11.63;;;9.88;;
21270;SDS011;10795;50.796;3.860;2022-08-01T07:14:19;12.30;;;7.65;;
21270;SDS011;10795;50.796;3.860;2022-08-01T07:16:45;9.15;;;6.70;;
21270;SDS011;10795;50.796;3.860;2022-08-01T07:19:11;11.57;;;8.57;;
21270;SDS011;10795;50.796;3.860;2022-08-01T07:21:37;9.70;;;7.72;;
21270;SDS011;10795;50.796;3.860;2022-08-01T07:24:04;10.90;;;6.57;;
21270;SDS011;10795;50.796;3.860;2022-08-01T07:26:30;10.75;;;7.32;;
21270;SDS011;10795;50.796;3.860;2022-08-01T07:28:56;7.40;;;6.07;;
21270;SDS011;10795;50.796;3.860;2022-08-01T07:31:22;8.32;;;7.40;;
21270;SDS011;10795;50.796;3.860;2022-08-01T07:33:48;7.57;;;6.30;;
21270;SDS011;10795;50.796;3.860;2022-08-01T07:36:15;8.18;;;6.78;;
21270;SDS011;10795;50.796;3.860;2022-08-01T07:38:41;6.10;;;5.50;;
21270;SDS011;10795;50.796;3.860;2022-08-01T07:41:07;7.38;;;5.93;;
21270;SDS011;10795;50.796;3.860;2022-08-01T07:43:33;4.63;;;4.22;;
21270;SDS011;10795;50.796;3.860;2022-08-01T07:46:01;3.92;;;3.60;;
21270;SDS011;10795;50.796;3.860;2022-08-01T07:48:30;6.90;;;5.82;;
21270;SDS011;10795;50.796;3.860;2022-08-01T07:50:56;5.05;;;4.55;;
21270;SDS011;10795;50.796;3.860;2022-08-01T07:53:22;6.45;;;5.72;;
21270;SDS011;10795;50.796;3.860;2022-08-01T07:55:48;7.32;;;5.28;;
21270;SDS011;10795;50.796;3.860;2022-08-01T07:58:14;6.05;;;5.15;;
21270;SDS011;10795;50.796;3.860;2022-08-01T08:00:41;10.63;;;6.50;;
21270;SDS011;10795;50.796;3.860;2022-08-01T08:03:07;4.35;;;3.95;;
21270;SDS011;10795;50.796;3.860;2022-08-01T08:05:32;7.68;;;4.57;;
21270;SDS011;10795;50.796;3.860;2022-08-01T08:08:04;5.85;;;4.90;;
21270;SDS011;10795;50.796;3.860;2022-08-01T08:10:31;5.75;;;5.20;;
21270;SDS011;10795;50.796;3.860;2022-08-01T08:12:57;5.47;;;5.03;;
21270;SDS011;10795;50.796;3.860;2022-08-01T08:15:23;6.05;;;4.65;;
21270;SDS011;10795;50.796;3.860;2022-08-01T08:17:49;4.80;;;4.00;;
21270;SDS011;10795;50.796;3.860;2022-08-01T08:20:14;4.90;;;4.40;;
21270;SDS011;10795;50.796;3.860;2022-08-01T08:22:40;5.43;;;4.93;;
21270;SDS011;10795;50.796;3.860;2022-08-01T08:25:06;8.25;;;5.18;;
21270;SDS011;10795;50.796;3.860;2022-08-01T08:27:33;7.25;;;5.97;;
21270;SDS011;10795;50.796;3.860;2022-08-01T08:29:59;6.88;;;6.28;;
21270;SDS011;10795;50.796;3.860;2022-08-01T08:32:24;4.97;;;4.47;;
21270;SDS011;10795;50.796;3.860;2022-08-01T08:34:50;6.50;;;5.43;;
21270;SDS011;10795;50.796;3.860;2022-08-01T08:37:16;10.35;;;8.88;;
21270;SDS011;10795;50.796;3.860;2022-08-01T08:39:42;9.18;;;8.38;;
21270;SDS011;10795;50.796;3.860;2022-08-01T08:42:12;8.43;;;7.70;;
21270;SDS011;10795;50.796;3.860;2022-08-01T08:44:39;11.20;;;10.13;;
21270;SDS011;10795;50.796;3.860;2022-08-01T08:47:06;11.18;;;10.00;;
21270;SDS011;10795;50.796;3.860;2022-08-01T08:49:35;9.55;;;8.63;;
21270;SDS011;10795;50.796;3.860;2022-08-01T08:52:02;8.68;;;7.85;;
21270;SDS011;10795;50.796;3.860;2022-08-01T08:54:29;9.43;;;8.40;;
21270;SDS011;10795;50.796;3.860;2022-08-01T08:56:57;8.17;;;7.47;;
21270;SDS011;10795;50.796;3.860;2022-08-01T08:59:25;6.32;;;5.82;;
21270;SDS011;10795;50.796;3.860;2022-08-01T09:01:51;8.05;;;7.22;;
21270;SDS011;10795;50.796;3.860;2022-08-01T09:04:17;8.25;;;7.45;;
21270;SDS011;10795;50.796;3.860;2022-08-01T09:06:46;6.43;;;5.90;;
21270;SDS011;10795;50.796;3.860;2022-08-01T09:09:11;9.00;;;8.10;;
21270;SDS011;10795;50.796;3.860;2022-08-01T09:11:37;8.85;;;8.10;;
21270;SDS011;10795;50.796;3.860;2022-08-01T09:14:07;8.63;;;7.82;;
21270;SDS011;10795;50.796;3.860;2022-08-01T09:16:35;8.65;;;7.75;;
21270;SDS011;10795;50.796;3.860;2022-08-01T09:19:08;7.47;;;6.75;;
21270;SDS011;10795;50.796;3.860;2022-08-01T09:22:03;5.63;;;5.22;;
21270;SDS011;10795;50.796;3.860;2022-08-01T09:24:30;8.43;;;7.63;;
21270;SDS011;10795;50.796;3.860;2022-08-01T09:26:57;8.05;;;7.25;;
21270;SDS011;10795;50.796;3.860;2022-08-01T09:29:25;8.15;;;7.35;;
21270;SDS011;10795;50.796;3.860;2022-08-01T09:34:30;9.30;;;6.70;;
21270;SDS011;10795;50.796;3.860;2022-08-01T09:39:26;7.50;;;6.70;;
21270;SDS011;10795;50.796;3.860;2022-08-01T09:41:57;5.53;;;5.13;;
21270;SDS011;10795;50.796;3.860;2022-08-01T09:44:37;5.30;;;4.90;;
21270;SDS011;10795;50.796;3.860;2022-08-01T09:47:04;6.18;;;5.65;;
21270;SDS011;10795;50.796;3.860;2022-08-01T09:49:32;7.07;;;6.35;;
21270;SDS011;10795;50.796;3.860;2022-08-01T09:52:22;6.53;;;5.88;;
21270;SDS011;10795;50.796;3.860;2022-08-01T09:54:57;9.07;;;6.22;;
21270;SDS011;10795;50.796;3.860;2022-08-01T09:57:28;5.40;;;5.00;;
21270;SDS011;10795;50.796;3.860;2022-08-01T09:59:55;4.65;;;4.25;;
21270;SDS011;10795;50.796;3.860;2022-08-01T10:02:29;6.93;;;6.10;;
21270;SDS011;10795;50.796;3.860;2022-08-01T10:04:57;5.13;;;4.72;;
21270;SDS011;10795;50.796;3.860;2022-08-01T10:07:23;7.25;;;5.78;;
21270;SDS011;10795;50.796;3.860;2022-08-01T10:09:49;9.10;;;5.95;;
21270;SDS011;10795;50.796;3.860;2022-08-01T10:12:16;6.38;;;5.70;;
21270;SDS011;10795;50.796;3.860;2022-08-01T10:14:44;6.00;;;5.50;;
21270;SDS011;10795;50.796;3.860;2022-08-01T10:17:14;4.35;;;3.95;;
21270;SDS011;10795;50.796;3.860;2022-08-01T10:19:42;6.18;;;5.60;;
21270;SDS011;10795;50.796;3.860;2022-08-01T10:22:09;5.15;;;4.68;;
21270;SDS011;10795;50.796;3.860;2022-08-01T10:24:38;5.05;;;4.57;;
21270;SDS011;10795;50.796;3.860;2022-08-01T10:27:09;3.35;;;3.10;;
21270;SDS011;10795;50.796;3.860;2022-08-01T10:29:36;3.55;;;3.28;;
21270;SDS011;10795;50.796;3.860;2022-08-01T10:32:06;5.28;;;3.10;;
21270;SDS011;10795;50.796;3.860;2022-08-01T10:34:34;3.22;;;2.90;;
21270;SDS011;10795;50.796;3.860;2022-08-01T10:37:02;3.13;;;2.58;;
21270;SDS011;10795;50.796;3.860;2022-08-01T10:39:32;2.60;;;2.40;;
21270;SDS011;10795;50.796;3.860;2022-08-01T10:41:59;2.88;;;2.67;;
21270;SDS011;10795;50.796;3.860;2022-08-01T10:44:26;2.83;;;2.55;;
21270;SDS011;10795;50.796;3.860;2022-08-01T10:49:56;4.18;;;2.80;;
21270;SDS011;10795;50.796;3.860;2022-08-01T10:52:36;2.80;;;2.60;;
21270;SDS011;10795;50.796;3.860;2022-08-01T10:55:05;2.70;;;2.47;;
21270;SDS011;10795;50.796;3.860;2022-08-01T10:57:42;4.65;;;3.50;;
21270;SDS011;10795;50.796;3.860;2022-08-01T11:00:09;5.35;;;3.80;;
21270;SDS011;10795;50.796;3.860;2022-08-01T11:02:58;3.50;;;3.20;;
21270;SDS011;10795;50.796;3.860;2022-08-01T11:05:32;3.80;;;3.50;;
21270;SDS011;10795;50.796;3.860;2022-08-01T11:08:06;4.15;;;3.85;;
21270;SDS011;10795;50.796;3.860;2022-08-01T11:10:41;3.80;;;3.50;;
21270;SDS011;10795;50.796;3.860;2022-08-01T11:13:11;4.82;;;4.43;;
21270;SDS011;10795;50.796;3.860;2022-08-01T11:15:40;3.33;;;3.13;;
21270;SDS011;10795;50.796;3.860;2022-08-01T11:18:40;3.40;;;3.20;;
21270;SDS011;10795;50.796;3.860;2022-08-01T11:21:00;3.42;;;3.22;;
21270;SDS011;10795;50.796;3.860;2022-08-01T11:23:27;3.75;;;3.45;;
21270;SDS011;10795;50.796;3.860;2022-08-01T11:28:21;4.38;;;4.07;;
21270;SDS011;10795;50.796;3.860;2022-08-01T11:31:34;4.50;;;3.90;;
21270;SDS011;10795;50.796;3.860;2022-08-01T11:38:36;5.15;;;4.85;;
21270;SDS011;10795;50.796;3.860;2022-08-01T11:44:09;3.78;;;3.42;;
21270;SDS011;10795;50.796;3.860;2022-08-01T11:47:07;5.03;;;4.72;;
21270;SDS011;10795;50.796;3.860;2022-08-01T11:52:10;4.60;;;4.20;;
21270;SDS011;10795;50.796;3.860;2022-08-01T11:57:10;7.10;;;4.63;;
21270;SDS011;10795;50.796;3.860;2022-08-01T11:59:42;4.57;;;4.18;;
21270;SDS011;10795;50.796;3.860;2022-08-01T12:04:49;3.55;;;3.35;;
21270;SDS011;10795;50.796;3.860;2022-08-01T12:07:22;4.43;;;4.00;;
21270;SDS011;10795;50.796;3.860;2022-08-01T12:09:56;4.03;;;3.70;;
21270;SDS011;10795;50.796;3.860;2022-08-01T12:12:33;3.40;;;3.20;;
21270;SDS011;10795;50.796;3.860;2022-08-01T12:15:03;3.95;;;3.65;;
21270;SDS011;10795;50.796;3.860;2022-08-01T12:17:40;5.55;;;5.15;;
21270;SDS011;10795;50.796;3.860;2022-08-01T12:20:11;4.72;;;4.35;;
21270;SDS011;10795;50.796;3.860;2022-08-01T12:25:09;3.90;;;3.67;;
21270;SDS011;10795;50.796;3.860;2022-08-01T12:27:40;3.40;;;3.20;;
21270;SDS011;10795;50.796;3.860;2022-08-01T12:30:08;4.65;;;4.25;;
21270;SDS011;10795;50.796;3.860;2022-08-01T12:32:37;4.45;;;4.07;;
21270;SDS011;10795;50.796;3.860;2022-08-01T12:35:15;3.88;;;3.58;;
21270;SDS011;10795;50.796;3.860;2022-08-01T12:37:51;5.22;;;4.82;;
21270;SDS011;10795;50.796;3.860;2022-08-01T12:40:20;4.82;;;4.43;;
21270;SDS011;10795;50.796;3.860;2022-08-01T12:42:49;3.83;;;3.53;;
21270;SDS011;10795;50.796;3.860;2022-08-01T12:45:28;4.78;;;4.38;;
21270;SDS011;10795;50.796;3.860;2022-08-01T12:47:58;4.13;;;3.80;;
21270;SDS011;10795;50.796;3.860;2022-08-01T12:50:25;4.72;;;3.72;;
21270;SDS011;10795;50.796;3.860;2022-08-01T12:52:56;4.88;;;4.20;;
21270;SDS011;10795;50.796;3.860;2022-08-01T12:55:23;4.97;;;4.47;;
21270;SDS011;10795;50.796;3.860;2022-08-01T12:58:08;5.07;;;4.07;;
21270;SDS011;10795;50.796;3.860;2022-08-01T13:00:36;3.65;;;3.35;;
21270;SDS011;10795;50.796;3.860;2022-08-01T13:10:44;3.80;;;3.53;;
21270;SDS011;10795;50.796;3.860;2022-08-01T13:13:11;2.80;;;2.60;;
21270;SDS011;10795;50.796;3.860;2022-08-01T13:15:38;3.33;;;3.03;;
21270;SDS011;10795;50.796;3.860;2022-08-01T13:18:26;2.55;;;2.45;;
21270;SDS011;10795;50.796;3.860;2022-08-01T13:24:05;2.83;;;2.63;;
21270;SDS011;10795;50.796;3.860;2022-08-01T13:29:19;3.83;;;3.47;;
21270;SDS011;10795;50.796;3.860;2022-08-01T13:31:47;3.58;;;3.10;;
21270;SDS011;10795;50.796;3.860;2022-08-01T13:34:14;2.85;;;2.65;;
21270;SDS011;10795;50.796;3.860;2022-08-01T13:36:40;2.65;;;2.33;;
21270;SDS011;10795;50.796;3.860;2022-08-01T13:39:06;2.38;;;2.28;;
21270;SDS011;10795;50.796;3.860;2022-08-01T13:41:50;2.70;;;2.50;;
21270;SDS011;10795;50.796;3.860;2022-08-01T13:44:17;2.95;;;2.75;;
21270;SDS011;10795;50.796;3.860;2022-08-01T13:46:43;3.42;;;2.97;;
21270;SDS011;10795;50.796;3.860;2022-08-01T13:49:10;5.55;;;3.50;;
21270;SDS011;10795;50.796;3.860;2022-08-01T13:51:37;3.00;;;2.80;;
21270;SDS011;10795;50.796;3.860;2022-08-01T13:54:03;3.80;;;2.38;;
21270;SDS011;10795;50.796;3.860;2022-08-01T13:56:30;2.60;;;2.40;;
21270;SDS011;10795;50.796;3.860;2022-08-01T13:58:56;5.63;;;2.50;;
21270;SDS011;10795;50.796;3.860;2022-08-01T14:01:23;2.45;;;2.13;;
21270;SDS011;10795;50.796;3.860;2022-08-01T14:03:49;1.88;;;1.40;;
21270;SDS011;10795;50.796;3.860;2022-08-01T14:06:16;2.47;;;1.38;;
21270;SDS011;10795;50.796;3.860;2022-08-01T14:08:43;3.72;;;1.40;;
21270;SDS011;10795;50.796;3.860;2022-08-01T14:11:10;1.48;;;1.00;;
21270;SDS011;10795;50.796;3.860;2022-08-01T14:13:36;3.25;;;1.25;;
21270;SDS011;10795;50.796;3.860;2022-08-01T14:16:04;1.95;;;1.20;;
21270;SDS011;10795;50.796;3.860;2022-08-01T14:18:30;1.45;;;1.20;;
21270;SDS011;10795;50.796;3.860;2022-08-01T14:20:56;1.75;;;1.27;;
21270;SDS011;10795;50.796;3.860;2022-08-01T14:23:21;1.30;;;1.20;;
21270;SDS011;10795;50.796;3.860;2022-08-01T14:25:47;3.83;;;1.25;;
21270;SDS011;10795;50.796;3.860;2022-08-01T14:28:13;2.00;;;1.40;;
21270;SDS011;10795;50.796;3.860;2022-08-01T14:30:39;1.65;;;1.15;;
21270;SDS011;10795;50.796;3.860;2022-08-01T14:33:06;1.23;;;1.13;;
21270;SDS011;10795;50.796;3.860;2022-08-01T14:35:32;1.23;;;1.13;;
21270;SDS011;10795;50.796;3.860;2022-08-01T14:37:57;1.23;;;1.13;;
21270;SDS011;10795;50.796;3.860;2022-08-01T14:40:23;1.63;;;1.10;;
21270;SDS011;10795;50.796;3.860;2022-08-01T14:42:49;1.33;;;1.23;;
21270;SDS011;10795;50.796;3.860;2022-08-01T14:45:15;2.15;;;1.38;;
21270;SDS011;10795;50.796;3.860;2022-08-01T14:47:41;2.92;;;1.38;;
21270;SDS011;10795;50.796;3.860;2022-08-01T14:50:08;2.10;;;1.40;;
21270;SDS011;10795;50.796;3.860;2022-08-01T14:52:36;2.03;;;1.10;;
21270;SDS011;10795;50.796;3.860;2022-08-01T14:55:04;1.38;;;1.20;;
21270;SDS011;10795;50.796;3.860;2022-08-01T14:57:31;3.47;;;1.20;;
21270;SDS011;10795;50.796;3.860;2022-08-01T14:59:56;3.17;;;1.38;;
21270;SDS011;10795;50.796;3.860;2022-08-01T15:02:22;2.53;;;1.52;;
21270;SDS011;10795;50.796;3.860;2022-08-01T15:04:48;1.42;;;1.00;;
21270;SDS011;10795;50.796;3.860;2022-08-01T15:07:15;1.33;;;1.05;;
21270;SDS011;10795;50.796;3.860;2022-08-01T15:09:42;1.38;;;1.02;;
21270;SDS011;10795;50.796;3.860;2022-08-01T15:12:08;1.85;;;1.42;;
21270;SDS011;10795;50.796;3.860;2022-08-01T15:14:35;1.52;;;1.23;;
21270;SDS011;10795;50.796;3.860;2022-08-01T15:19:57;1.92;;;1.30;;
21270;SDS011;10795;50.796;3.860;2022-08-01T15:22:33;2.88;;;1.20;;
21270;SDS011;10795;50.796;3.860;2022-08-01T15:25:00;3.28;;;1.27;;
21270;SDS011;10795;50.796;3.860;2022-08-01T15:27:27;0.95;;;0.95;;
21270;SDS011;10795;50.796;3.860;2022-08-01T15:29:53;2.63;;;1.15;;
21270;SDS011;10795;50.796;3.860;2022-08-01T15:32:20;2.08;;;1.00;;
21270;SDS011;10795;50.796;3.860;2022-08-01T15:34:46;2.25;;;0.90;;
21270;SDS011;10795;50.796;3.860;2022-08-01T15:37:12;3.90;;;1.38;;
21270;SDS011;10795;50.796;3.860;2022-08-01T15:39:38;1.48;;;0.80;;
21270;SDS011;10795;50.796;3.860;2022-08-01T15:42:14;2.15;;;1.40;;
21270;SDS011;10795;50.796;3.860;2022-08-01T15:44:41;2.83;;;1.38;;